createdAt,value
2022-12-03T00:02:23.615Z,1.35
2022-12-03T00:04:51.582Z,1.36
2022-12-03T00:07:18.604Z,1.35
2022-12-03T00:09:45.401Z,1.37
2022-12-03T00:12:12.266Z,1.36
2022-12-03T00:14:52.699Z,1.35
2022-12-03T00:17:19.994Z,1.36
2022-12-03T00:19:46.769Z,1.35
2022-12-03T00:22:13.648Z,1.36
2022-12-03T00:24:40.458Z,1.35
2022-12-03T00:27:07.449Z,1.35
2022-12-03T00:29:34.631Z,1.33
2022-12-03T00:32:01.695Z,1.35
2022-12-03T00:34:28.718Z,1.31
2022-12-03T00:36:55.583Z,1.33
2022-12-03T00:39:22.478Z,1.29
2022-12-03T00:41:49.468Z,1.30
2022-12-03T00:44:16.277Z,1.30
2022-12-03T00:46:43.875Z,1.28
2022-12-03T00:49:10.858Z,1.27
2022-12-03T00:51:37.908Z,1.27
2022-12-03T00:54:04.969Z,1.27
2022-12-03T00:56:32.010Z,1.29
2022-12-03T00:58:58.791Z,1.29
2022-12-03T01:01:25.711Z,1.30
2022-12-03T01:03:52.581Z,1.30
2022-12-03T01:06:21.005Z,1.30
2022-12-03T01:08:47.854Z,1.28
2022-12-03T01:11:14.611Z,1.27
2022-12-03T01:13:41.974Z,1.30
2022-12-03T01:16:08.916Z,1.28
2022-12-03T01:18:35.738Z,1.27
2022-12-03T01:21:02.578Z,1.27
2022-12-03T01:23:29.307Z,1.26
2022-12-03T01:25:56.149Z,1.26
2022-12-03T01:28:22.869Z,1.27
2022-12-03T01:30:49.814Z,1.27
2022-12-03T01:33:16.744Z,1.28
2022-12-03T01:35:43.552Z,1.27
2022-12-03T01:38:10.332Z,1.27
2022-12-03T01:40:37.271Z,1.25
2022-12-03T01:43:04.114Z,1.25
2022-12-03T01:45:31.110Z,1.25
2022-12-03T01:47:57.925Z,1.25
2022-12-03T01:50:31.854Z,1.26
2022-12-03T01:53:01.678Z,1.28
2022-12-03T01:55:29.355Z,1.27
2022-12-03T01:57:59.157Z,1.25
2022-12-03T02:00:28.435Z,1.25
2022-12-03T02:03:00.374Z,1.27
2022-12-03T02:05:30.763Z,1.25
2022-12-03T02:07:59.054Z,1.26
2022-12-03T02:10:30.676Z,1.26
2022-12-03T02:13:00.113Z,1.25
2022-12-03T02:15:27.263Z,1.27
2022-12-03T02:17:54.467Z,1.26
2022-12-03T02:20:22.019Z,1.26
2022-12-03T02:23:07.468Z,1.25
2022-12-03T02:25:36.587Z,1.28
2022-12-03T02:28:06.124Z,1.29
2022-12-03T02:30:33.835Z,1.31
2022-12-03T02:33:01.835Z,1.28
2022-12-03T02:35:34.974Z,1.28
2022-12-03T02:38:24.921Z,1.32
2022-12-03T02:40:55.778Z,1.31
2022-12-03T02:43:24.139Z,1.31
2022-12-03T02:45:54.487Z,1.34
2022-12-03T02:48:27.027Z,1.35
2022-12-03T02:50:57.499Z,1.36
2022-12-03T02:53:28.329Z,1.36
2022-12-03T02:55:58.107Z,1.38
2022-12-03T02:58:27.408Z,1.38
2022-12-03T03:00:55.700Z,1.38
2022-12-03T03:03:26.028Z,1.40
2022-12-03T03:05:54.128Z,1.41
2022-12-03T03:08:21.028Z,1.40
2022-12-03T03:10:48.399Z,1.39
2022-12-03T03:13:19.317Z,1.39
2022-12-03T03:15:46.360Z,1.40
2022-12-03T03:18:15.611Z,1.40
2022-12-03T03:20:43.581Z,1.42
2022-12-03T03:23:16.364Z,1.42
2022-12-03T03:25:47.080Z,1.43
2022-12-03T03:28:14.949Z,1.44
2022-12-03T03:30:43.471Z,1.44
2022-12-03T03:33:12.692Z,1.45
2022-12-03T03:35:40.465Z,1.46
2022-12-03T03:38:08.672Z,1.47
2022-12-03T03:40:36.523Z,1.49
2022-12-03T03:43:03.525Z,1.50
2022-12-03T03:45:30.439Z,1.51
2022-12-03T03:47:59.933Z,1.51
2022-12-03T03:50:32.611Z,1.50
2022-12-03T03:53:02.717Z,1.51
2022-12-03T03:55:30.806Z,1.53
2022-12-03T03:57:57.656Z,1.53
2022-12-03T04:00:25.256Z,1.52
2022-12-03T04:03:07.247Z,1.54
2022-12-03T04:05:34.055Z,1.53
2022-12-03T04:08:00.859Z,1.58
2022-12-03T04:10:27.801Z,1.57
2022-12-03T04:12:54.585Z,1.55
2022-12-03T04:15:21.504Z,1.55
2022-12-03T04:17:48.437Z,1.56
2022-12-03T04:20:15.255Z,1.56
2022-12-03T04:22:42.018Z,1.57
2022-12-03T04:25:10.415Z,1.57
2022-12-03T04:27:37.236Z,1.60
2022-12-03T04:30:04.307Z,1.59
2022-12-03T04:32:31.116Z,1.60
2022-12-03T04:34:57.874Z,1.57
2022-12-03T04:37:24.681Z,1.61
2022-12-03T04:39:51.527Z,1.60
2022-12-03T04:42:18.313Z,1.61
2022-12-03T04:44:45.124Z,1.63
2022-12-03T04:47:17.345Z,1.62
2022-12-03T04:49:46.701Z,1.63
2022-12-03T04:52:15.310Z,1.62
2022-12-03T04:54:43.145Z,1.62
2022-12-03T04:57:10.619Z,1.62
2022-12-03T04:59:38.347Z,1.64
2022-12-03T05:02:06.419Z,1.64
2022-12-03T05:04:33.879Z,1.64
2022-12-03T05:07:00.671Z,1.63
2022-12-03T05:09:27.480Z,1.64
2022-12-03T05:11:54.321Z,1.65
2022-12-03T05:14:21.155Z,1.64
2022-12-03T05:16:47.969Z,1.65
2022-12-03T05:19:14.853Z,1.64
2022-12-03T05:21:41.651Z,1.66
2022-12-03T05:24:08.504Z,1.67
2022-12-03T05:26:35.301Z,1.67
2022-12-03T05:29:02.066Z,1.66
2022-12-03T05:31:28.911Z,1.65
2022-12-03T05:33:55.823Z,1.63
2022-12-03T05:36:22.593Z,1.67
2022-12-03T05:38:49.406Z,1.65
2022-12-03T05:41:16.170Z,1.67
2022-12-03T05:43:42.945Z,1.68
2022-12-03T05:46:09.719Z,1.66
2022-12-03T05:48:36.516Z,1.67
2022-12-03T05:51:03.646Z,1.68
2022-12-03T05:53:30.433Z,1.67
2022-12-03T05:55:57.242Z,1.67
2022-12-03T05:58:24.144Z,1.67
2022-12-03T06:00:50.908Z,1.68
2022-12-03T06:03:17.805Z,1.70
2022-12-03T06:05:44.753Z,1.71
2022-12-03T06:08:11.573Z,1.71
2022-12-03T06:10:38.487Z,1.72
2022-12-03T06:13:05.254Z,1.72
2022-12-03T06:15:32.099Z,1.71
2022-12-03T06:17:58.838Z,1.72
2022-12-03T06:20:25.636Z,1.73
2022-12-03T06:22:52.446Z,1.75
2022-12-03T06:25:19.230Z,1.74
2022-12-03T06:27:46.519Z,1.75
2022-12-03T06:30:14.308Z,1.74
2022-12-03T06:32:41.198Z,1.76
2022-12-03T06:35:08.539Z,1.78
2022-12-03T06:37:35.370Z,1.81
2022-12-03T06:40:02.180Z,1.77
2022-12-03T06:42:29.081Z,1.78
2022-12-03T06:44:56.149Z,1.79
2022-12-03T06:47:23.141Z,1.78
2022-12-03T06:49:49.960Z,1.78
2022-12-03T06:52:16.679Z,1.81
2022-12-03T06:54:43.500Z,1.83
2022-12-03T06:57:10.239Z,1.82
2022-12-03T06:59:37.020Z,1.80
2022-12-03T07:02:05.074Z,1.83
2022-12-03T07:04:32.034Z,1.83
2022-12-03T07:06:58.821Z,1.84
2022-12-03T07:09:25.640Z,1.83
2022-12-03T07:11:52.394Z,1.85
2022-12-03T07:14:19.155Z,1.85
2022-12-03T07:16:46.055Z,1.85
2022-12-03T07:19:12.824Z,1.87
2022-12-03T07:21:39.872Z,1.85
2022-12-03T07:24:06.840Z,1.89
2022-12-03T07:26:33.616Z,1.89
2022-12-03T07:29:00.444Z,1.90
2022-12-03T07:31:27.431Z,1.91
2022-12-03T07:33:54.892Z,1.91
2022-12-03T07:36:21.788Z,1.96
2022-12-03T07:38:49.125Z,1.95
2022-12-03T07:41:15.930Z,1.95
2022-12-03T07:43:42.789Z,1.94
2022-12-03T07:46:09.618Z,1.94
2022-12-03T07:48:36.495Z,1.93
2022-12-03T07:51:03.299Z,1.96
2022-12-03T07:53:30.056Z,1.95
2022-12-03T07:55:56.828Z,1.95
2022-12-03T07:58:23.677Z,1.94
2022-12-03T08:00:50.489Z,1.98
2022-12-03T08:03:17.229Z,1.96
2022-12-03T08:05:45.898Z,1.98
2022-12-03T08:08:12.801Z,1.98
2022-12-03T08:10:39.611Z,1.99
2022-12-03T08:13:17.950Z,1.99
2022-12-03T08:15:45.119Z,2.00
2022-12-03T08:18:22.343Z,2.01
2022-12-03T08:20:51.478Z,2.01
2022-12-03T08:23:21.709Z,2.00
2022-12-03T08:25:50.268Z,2.02
2022-12-03T08:28:26.738Z,2.01
2022-12-03T08:31:12.977Z,2.04
2022-12-03T08:33:40.560Z,2.05
2022-12-03T08:36:15.320Z,2.03
2022-12-03T08:38:54.792Z,2.03
2022-12-03T08:41:22.205Z,2.04
2022-12-03T08:43:49.132Z,2.03
2022-12-03T08:46:19.258Z,2.04
2022-12-03T08:48:49.029Z,2.08
2022-12-03T08:51:25.723Z,2.05
2022-12-03T08:54:04.217Z,2.07
2022-12-03T08:56:35.880Z,2.08
2022-12-03T08:59:32.194Z,2.10
2022-12-03T09:01:59.883Z,2.12
2022-12-03T09:04:46.013Z,2.14
2022-12-03T09:07:12.847Z,2.13
2022-12-03T09:09:39.730Z,2.13
2022-12-03T09:12:06.704Z,2.16
2022-12-03T09:14:33.666Z,2.19
2022-12-03T09:17:00.593Z,2.20
2022-12-03T09:19:28.610Z,2.22
2022-12-03T09:21:55.488Z,2.22
2022-12-03T09:24:22.377Z,2.26
2022-12-03T09:26:49.578Z,2.27
2022-12-03T09:29:16.352Z,2.28
2022-12-03T09:31:43.472Z,2.28
2022-12-03T09:34:11.223Z,2.29
2022-12-03T09:36:38.152Z,2.31
2022-12-03T09:39:04.950Z,2.31
2022-12-03T09:41:31.704Z,2.31
2022-12-03T09:44:06.194Z,2.32
2022-12-03T09:46:36.821Z,2.33
2022-12-03T09:49:06.614Z,2.36
2022-12-03T09:51:36.639Z,2.35
2022-12-03T09:54:05.631Z,2.37
2022-12-03T09:56:37.573Z,2.38
2022-12-03T09:59:14.038Z,2.40
2022-12-03T10:01:41.106Z,2.42
2022-12-03T10:04:08.501Z,2.45
2022-12-03T10:06:37.903Z,2.46
2022-12-03T10:09:12.533Z,2.48
2022-12-03T10:11:39.464Z,2.50
2022-12-03T10:14:06.643Z,2.50
2022-12-03T10:16:41.647Z,2.53
2022-12-03T10:19:19.363Z,2.55
2022-12-03T10:21:46.228Z,2.57
2022-12-03T10:24:28.084Z,2.60
2022-12-03T10:26:58.147Z,2.62
2022-12-03T10:29:35.946Z,2.63
2022-12-03T10:32:06.593Z,2.65
2022-12-03T10:34:36.388Z,2.68
2022-12-03T10:37:23.455Z,2.70
2022-12-03T10:40:03.127Z,2.74
2022-12-03T10:42:34.820Z,2.74
2022-12-03T10:45:17.476Z,2.76
2022-12-03T10:48:02.741Z,2.76
2022-12-03T10:50:29.616Z,2.77
2022-12-03T10:52:56.437Z,2.79
2022-12-03T10:55:23.637Z,2.81
2022-12-03T10:57:50.541Z,2.85
2022-12-03T11:00:19.320Z,2.84
2022-12-03T11:02:54.668Z,2.82
2022-12-03T11:05:26.910Z,2.82
2022-12-03T11:07:54.239Z,2.86
2022-12-03T11:10:21.842Z,2.84
2022-12-03T11:13:27.001Z,2.84
2022-12-03T11:15:53.986Z,2.85
2022-12-03T11:18:37.430Z,2.85
2022-12-03T11:21:04.341Z,2.85
2022-12-03T11:23:46.392Z,2.87
2022-12-03T11:26:19.472Z,2.86
2022-12-03T11:28:46.647Z,2.85
2022-12-03T11:31:37.032Z,2.87
2022-12-03T11:34:18.983Z,2.87
2022-12-03T11:37:10.624Z,2.89
2022-12-03T11:39:49.424Z,2.88
2022-12-03T11:42:22.205Z,2.87
2022-12-03T11:45:15.654Z,2.89
2022-12-03T11:47:45.056Z,2.91
2022-12-03T11:50:40.438Z,2.92
2022-12-03T11:53:24.781Z,2.91
2022-12-03T11:56:05.264Z,2.92
2022-12-03T11:58:32.788Z,2.92
2022-12-03T12:01:02.756Z,2.93
2022-12-03T12:03:33.613Z,2.93
2022-12-03T12:06:04.255Z,2.92
2022-12-03T12:08:32.238Z,2.92
2022-12-03T12:10:59.837Z,2.92
2022-12-03T12:13:32.521Z,2.93
2022-12-03T12:16:06.805Z,2.93
2022-12-03T12:18:45.608Z,2.96
2022-12-03T12:21:43.144Z,2.96
2022-12-03T12:24:40.146Z,2.94
2022-12-03T12:27:09.787Z,2.92
2022-12-03T12:29:39.210Z,2.92
2022-12-03T12:32:08.695Z,2.93
2022-12-03T12:34:38.272Z,2.93
2022-12-03T12:37:19.903Z,2.94
2022-12-03T12:39:53.683Z,2.94
2022-12-03T12:42:29.793Z,2.97
2022-12-03T12:45:13.750Z,2.97
2022-12-03T12:47:48.914Z,2.96
2022-12-03T12:50:18.090Z,2.94
2022-12-03T12:52:52.435Z,2.95
2022-12-03T12:55:20.922Z,2.96
2022-12-03T12:57:48.394Z,2.95
2022-12-03T13:00:18.770Z,2.96
2022-12-03T13:02:51.900Z,2.96
2022-12-03T13:05:18.883Z,2.98
2022-12-03T13:07:46.104Z,2.98
2022-12-03T13:10:27.505Z,2.98
2022-12-03T13:12:54.571Z,2.97
2022-12-03T13:15:58.767Z,2.96
2022-12-03T13:18:33.444Z,2.95
2022-12-03T13:21:11.421Z,2.95
2022-12-03T13:23:40.432Z,2.97
2022-12-03T13:26:32.824Z,2.99
2022-12-03T13:29:12.641Z,3.00
2022-12-03T13:31:43.890Z,2.97
2022-12-03T13:34:21.372Z,2.96
2022-12-03T13:36:57.545Z,2.96
2022-12-03T13:39:32.758Z,2.96
2022-12-03T13:42:15.658Z,2.94
2022-12-03T13:44:49.395Z,2.96
2022-12-03T13:47:19.589Z,2.97
2022-12-03T13:50:21.386Z,2.97
2022-12-03T13:52:48.517Z,2.96
2022-12-03T13:55:24.714Z,2.96
2022-12-03T13:57:51.537Z,2.94
2022-12-03T14:00:18.828Z,2.97
2022-12-03T14:02:45.825Z,2.95
2022-12-03T14:05:18.529Z,2.94
2022-12-03T14:07:45.389Z,2.93
2022-12-03T14:10:13.507Z,2.94
2022-12-03T14:12:40.294Z,2.93
2022-12-03T14:15:07.551Z,2.94
2022-12-03T14:17:34.478Z,2.93
2022-12-03T14:20:01.318Z,2.94
2022-12-03T14:22:28.743Z,2.92
2022-12-03T14:24:55.991Z,2.93
2022-12-03T14:27:24.061Z,2.94
2022-12-03T14:29:51.648Z,2.95
2022-12-03T14:32:18.914Z,2.93
2022-12-03T14:34:45.856Z,2.92
2022-12-03T14:37:12.711Z,2.92
2022-12-03T14:39:39.602Z,2.92
2022-12-03T14:42:06.622Z,2.90
2022-12-03T14:44:33.452Z,2.91
2022-12-03T14:47:01.017Z,2.91
2022-12-03T14:49:27.788Z,2.91
2022-12-03T14:51:54.597Z,2.92
2022-12-03T14:54:21.527Z,2.97
2022-12-03T14:56:48.991Z,2.96
2022-12-03T14:59:15.781Z,2.97
2022-12-03T15:01:43.674Z,2.97
2022-12-03T15:04:10.583Z,3.00
2022-12-03T15:06:37.264Z,2.98
2022-12-03T15:09:04.305Z,3.00
2022-12-03T15:11:31.694Z,2.98
2022-12-03T15:13:58.988Z,3.00
2022-12-03T15:16:25.853Z,3.00
2022-12-03T15:18:52.650Z,3.01
2022-12-03T15:21:19.832Z,3.02
2022-12-03T15:23:46.939Z,3.02
2022-12-03T15:26:13.700Z,3.04
2022-12-03T15:28:45.313Z,3.05
2022-12-03T15:31:15.058Z,3.04
2022-12-03T15:33:41.898Z,3.03
2022-12-03T15:36:09.328Z,3.02
2022-12-03T15:38:36.131Z,3.03
2022-12-03T15:41:03.076Z,3.02
2022-12-03T15:43:29.970Z,3.05
2022-12-03T15:45:57.261Z,3.05
2022-12-03T15:48:24.343Z,3.04
2022-12-03T15:50:51.537Z,3.03
2022-12-03T15:53:18.842Z,3.03
2022-12-03T15:55:45.986Z,3.04
2022-12-03T15:58:12.919Z,3.05
2022-12-03T16:00:40.239Z,3.05
2022-12-03T16:03:07.397Z,3.06
2022-12-03T16:05:34.320Z,3.06
2022-12-03T16:08:03.004Z,3.07
2022-12-03T16:10:30.186Z,3.09
2022-12-03T16:12:57.028Z,3.11
2022-12-03T16:15:30.352Z,3.10
2022-12-03T16:17:59.547Z,3.09
2022-12-03T16:20:26.803Z,3.11
2022-12-03T16:22:53.654Z,3.11
2022-12-03T16:25:21.615Z,3.13
2022-12-03T16:27:48.698Z,3.12
2022-12-03T16:30:17.149Z,3.11
2022-12-03T16:32:44.163Z,3.15
2022-12-03T16:35:11.020Z,3.15
2022-12-03T16:37:37.955Z,3.12
2022-12-03T16:40:05.426Z,3.13
2022-12-03T16:42:32.534Z,3.15
2022-12-03T16:45:00.026Z,3.15
2022-12-03T16:47:33.450Z,3.15
2022-12-03T16:50:02.322Z,3.18
2022-12-03T16:52:29.305Z,3.16
2022-12-03T16:54:56.243Z,3.15
2022-12-03T16:57:27.566Z,3.17
2022-12-03T16:59:57.546Z,3.16
2022-12-03T17:02:24.917Z,3.15
2022-12-03T17:04:52.676Z,3.18
2022-12-03T17:07:19.708Z,3.16
2022-12-03T17:09:46.787Z,3.17
2022-12-03T17:12:14.868Z,3.18
2022-12-03T17:14:41.939Z,3.19
2022-12-03T17:17:08.941Z,3.20
2022-12-03T17:19:36.008Z,3.19
2022-12-03T17:22:03.187Z,3.18
2022-12-03T17:24:30.139Z,3.18
2022-12-03T17:26:57.007Z,3.18
2022-12-03T17:29:23.986Z,3.20
2022-12-03T17:31:51.054Z,3.20
2022-12-03T17:34:18.401Z,3.20
2022-12-03T17:36:45.303Z,3.18
2022-12-03T17:39:12.167Z,3.22
2022-12-03T17:41:39.093Z,3.20
2022-12-03T17:44:10.682Z,3.21
2022-12-03T17:46:39.928Z,3.22
2022-12-03T17:49:07.249Z,3.21
2022-12-03T17:51:34.898Z,3.23
2022-12-03T17:54:01.795Z,3.23
2022-12-03T17:56:29.223Z,3.23
2022-12-03T17:58:56.368Z,3.23
2022-12-03T18:01:23.494Z,3.23
2022-12-03T18:03:50.395Z,3.22
2022-12-03T18:06:17.397Z,3.23
2022-12-03T18:08:44.375Z,3.22
2022-12-03T18:11:12.207Z,3.24
2022-12-03T18:13:39.732Z,3.24
2022-12-03T18:16:07.233Z,3.25
2022-12-03T18:18:41.079Z,3.25
2022-12-03T18:21:08.380Z,3.28
2022-12-03T18:23:38.854Z,3.29
2022-12-03T18:26:07.008Z,3.27
2022-12-03T18:28:34.492Z,3.26
2022-12-03T18:31:02.298Z,3.24
2022-12-03T18:33:29.341Z,3.26
2022-12-03T18:35:58.406Z,3.27
2022-12-03T18:38:30.132Z,3.24
2022-12-03T18:40:58.204Z,3.24
2022-12-03T18:43:27.139Z,3.25
2022-12-03T18:45:59.427Z,3.24
2022-12-03T18:48:26.368Z,3.23
2022-12-03T18:50:53.733Z,3.22
2022-12-03T18:53:21.831Z,3.24
2022-12-03T18:55:49.103Z,3.26
2022-12-03T18:58:18.346Z,3.25
2022-12-03T19:00:48.104Z,3.26
2022-12-03T19:03:15.772Z,3.29
2022-12-03T19:05:44.594Z,3.25
2022-12-03T19:08:14.924Z,3.26
2022-12-03T19:10:43.524Z,3.26
2022-12-03T19:13:12.156Z,3.25
2022-12-03T19:15:39.993Z,3.25
2022-12-03T19:18:07.690Z,3.25
2022-12-03T19:20:35.443Z,3.27
2022-12-03T19:23:03.107Z,3.27
2022-12-03T19:25:30.760Z,3.28
2022-12-03T19:27:58.547Z,3.30
2022-12-03T19:30:26.975Z,3.30
2022-12-03T19:32:54.416Z,3.29
2022-12-03T19:35:22.347Z,3.30
2022-12-03T19:37:51.016Z,3.30
2022-12-03T19:40:19.848Z,3.33
2022-12-03T19:42:47.609Z,3.33
2022-12-03T19:45:14.821Z,3.34
2022-12-03T19:47:44.710Z,3.35
2022-12-03T19:50:17.954Z,3.32
2022-12-03T19:52:49.921Z,3.33
2022-12-03T19:55:18.123Z,3.36
2022-12-03T19:57:46.336Z,3.35
2022-12-03T20:00:15.257Z,3.39
2022-12-03T20:02:43.148Z,3.39
2022-12-03T20:05:11.687Z,3.40
2022-12-03T20:07:39.648Z,3.42
2022-12-03T20:10:07.805Z,3.42
2022-12-03T20:12:36.885Z,3.43
2022-12-03T20:15:05.300Z,3.42
2022-12-03T20:17:34.043Z,3.45
2022-12-03T20:20:01.578Z,3.44
2022-12-03T20:22:31.336Z,3.44
2022-12-03T20:24:59.138Z,3.46
2022-12-03T20:27:27.559Z,3.45
2022-12-03T20:29:55.534Z,3.46
2022-12-03T20:32:23.125Z,3.48
2022-12-03T20:34:50.234Z,3.47
2022-12-03T20:37:18.510Z,3.47
2022-12-03T20:39:46.488Z,3.48
2022-12-03T20:42:14.842Z,3.47
2022-12-03T20:44:42.573Z,3.47
2022-12-03T20:47:10.275Z,3.48
2022-12-03T20:49:38.201Z,3.49
2022-12-03T20:52:06.951Z,3.48
2022-12-03T20:54:34.850Z,3.50
2022-12-03T20:57:02.599Z,3.49
2022-12-03T20:59:30.130Z,3.53
2022-12-03T21:01:57.724Z,3.50
2022-12-03T21:04:25.393Z,3.50
2022-12-03T21:06:52.944Z,3.48
2022-12-03T21:09:21.403Z,3.49
2022-12-03T21:11:49.939Z,3.48
2022-12-03T21:14:17.511Z,3.51
2022-12-03T21:17:07.455Z,3.50
2022-12-03T21:19:34.089Z,3.52
2022-12-03T21:22:01.405Z,3.50
2022-12-03T21:24:54.174Z,3.51
2022-12-03T21:27:21.957Z,3.53
2022-12-03T21:29:49.328Z,3.52
2022-12-03T21:32:16.475Z,3.54
2022-12-03T21:34:43.906Z,3.55
2022-12-03T21:37:11.027Z,3.55
2022-12-03T21:39:38.389Z,3.55
2022-12-03T21:42:19.199Z,3.56
2022-12-03T21:44:54.002Z,3.55
2022-12-03T21:47:21.073Z,3.58
2022-12-03T21:49:48.121Z,3.56
2022-12-03T21:52:16.236Z,3.59
2022-12-03T21:54:43.222Z,3.60
2022-12-03T21:57:10.551Z,3.59
2022-12-03T21:59:37.795Z,3.60
2022-12-03T22:02:05.221Z,3.59
2022-12-03T22:04:33.690Z,3.59
2022-12-03T22:07:00.933Z,3.57
2022-12-03T22:09:28.023Z,3.59
2022-12-03T22:11:54.859Z,3.59
2022-12-03T22:14:21.610Z,3.60
2022-12-03T22:16:48.317Z,3.59
2022-12-03T22:19:15.104Z,3.60
2022-12-03T22:21:42.085Z,3.59
2022-12-03T22:24:09.015Z,3.62
2022-12-03T22:26:35.825Z,3.64
2022-12-03T22:29:02.971Z,3.64
2022-12-03T22:31:29.745Z,3.63
2022-12-03T22:33:56.638Z,3.65
2022-12-03T22:36:23.516Z,3.65
2022-12-03T22:38:51.200Z,3.65
2022-12-03T22:41:19.337Z,3.68
2022-12-03T22:43:47.529Z,3.66
2022-12-03T22:46:15.473Z,3.65
2022-12-03T22:48:43.636Z,3.66
2022-12-03T22:51:22.019Z,3.65
2022-12-03T22:53:57.273Z,3.66
2022-12-03T22:56:25.602Z,3.67
2022-12-03T22:58:52.439Z,3.67
2022-12-03T23:01:40.850Z,3.66
2022-12-03T23:04:10.650Z,3.67
2022-12-03T23:06:38.219Z,3.67
2022-12-03T23:09:06.629Z,3.67
2022-12-03T23:11:33.819Z,3.67
2022-12-03T23:14:01.213Z,3.67
2022-12-03T23:16:31.998Z,3.70
2022-12-03T23:19:00.421Z,3.70
2022-12-03T23:21:30.898Z,3.70
2022-12-03T23:24:02.824Z,3.69
2022-12-03T23:26:29.853Z,3.69
2022-12-03T23:28:56.772Z,3.71
2022-12-03T23:31:30.525Z,3.71
2022-12-03T23:33:58.759Z,3.69
2022-12-03T23:36:28.110Z,3.69
2022-12-03T23:38:55.001Z,3.72
2022-12-03T23:41:23.495Z,3.71
2022-12-03T23:43:50.313Z,3.71
2022-12-03T23:46:24.654Z,3.71
2022-12-03T23:48:52.172Z,3.71
2022-12-03T23:51:22.104Z,3.73
2022-12-03T23:53:48.985Z,3.75
2022-12-03T23:56:20.557Z,3.74
2022-12-03T23:58:47.817Z,3.74
